Time;durP1;ratioP1;P1;durP2;ratioP2;P2;SDS_P1;SDS_P2;PMS_P1;PMS_P2;Temp;Humidity;BMP_temperature;BMP_pressure;BME280_temperature;BME280_humidity;BME280_pressure;Samples;Min_cycle;Max_cycle;Signal;HPM_P1;HPM_P2
2022/01/31 00:00:13;;;;;;;2.08;0.20;;;;;;;;;;4375078;32;20043;-51
2022/01/31 00:02:41;;;;;;;1.33;0.20;;;;;;;;;;4376699;32;20050;-54
2022/01/31 00:05:11;;;;;;;0.75;0.40;;;;;;;;;;4372690;32;20044;-54
2022/01/31 00:07:39;;;;;;;0.65;0.20;;;;;;;;;;4385186;32;20049;-54
2022/01/31 00:10:10;;;;;;;0.60;0.20;;;;;;;;;;4379400;32;20081;-54
2022/01/31 00:12:50;;;;;;;1.20;0.20;;;;;;;;;;4381428;32;20047;-54
2022/01/31 00:15:19;;;;;;;0.90;0.30;;;;;;;;;;4376200;32;20055;-55
2022/01/31 00:17:47;;;;;;;1.52;0.30;;;;;;;;;;4381648;32;20027;-52
2022/01/31 00:20:16;;;;;;;1.50;0.22;;;;;;;;;;4382474;32;20046;-54
2022/01/31 00:22:44;;;;;;;1.33;0.30;;;;;;;;;;4373834;32;20413;-55
2022/01/31 00:25:13;;;;;;;1.05;0.25;;;;;;;;;;4371187;32;20109;-53
2022/01/31 00:27:41;;;;;;;0.70;0.10;;;;;;;;;;4371664;32;20039;-55
2022/01/31 00:30:10;;;;;;;0.90;0.30;;;;;;;;;;4388559;32;20042;-52
2022/01/31 00:32:38;;;;;;;1.52;0.37;;;;;;;;;;4387833;32;20027;-52
2022/01/31 00:35:08;;;;;;;1.30;0.25;;;;;;;;;;4385812;32;20023;-52
2022/01/31 00:37:37;;;;;;;0.85;0.20;;;;;;;;;;4382513;32;20089;-54
2022/01/31 00:40:07;;;;;;;1.17;0.30;;;;;;;;;;4379532;32;20035;-55
2022/01/31 00:42:36;;;;;;;1.30;0.40;;;;;;;;;;4384323;32;20480;-54
2022/01/31 00:45:25;;;;;;;1.17;0.32;;;;;;;;;;4385956;32;20073;-53
2022/01/31 00:48:03;;;;;;;0.65;0.20;;;;;;;;;;4381076;32;20035;-52
2022/01/31 00:50:38;;;;;;;0.70;0.20;;;;;;;;;;4374287;32;20031;-54
2022/01/31 00:53:08;;;;;;;0.43;0.20;;;;;;;;;;4378318;32;20480;-51
2022/01/31 00:55:36;;;;;;;0.70;0.20;;;;;;;;;;4385477;32;20039;-52
2022/01/31 00:58:04;;;;;;;1.23;0.30;;;;;;;;;;4382406;32;20044;-51
2022/01/31 01:00:33;;;;;;;2.70;0.20;;;;;;;;;;4386734;32;20071;-51
2022/01/31 01:03:02;;;;;;;1.85;0.30;;;;;;;;;;4388171;32;20055;-53
2022/01/31 01:05:30;;;;;;;0.57;0.20;;;;;;;;;;4387985;32;20438;-54
2022/01/31 01:07:59;;;;;;;0.10;0.10;;;;;;;;;;4380039;32;20111;-51
2022/01/31 01:10:27;;;;;;;2.28;0.50;;;;;;;;;;4379418;32;20554;-52
2022/01/31 01:12:55;;;;;;;0.47;0.20;;;;;;;;;;4373952;32;20047;-52
2022/01/31 01:15:24;;;;;;;1.00;0.20;;;;;;;;;;4375990;32;20329;-55
2022/01/31 01:17:52;;;;;;;0.75;0.32;;;;;;;;;;4385679;32;20047;-54
2022/01/31 01:20:20;;;;;;;0.93;0.22;;;;;;;;;;4384028;32;20048;-52
2022/01/31 01:22:49;;;;;;;1.70;0.30;;;;;;;;;;4379434;32;20095;-52
2022/01/31 01:25:17;;;;;;;0.82;0.20;;;;;;;;;;4380321;32;20058;-54
2022/01/31 01:27:49;;;;;;;0.43;0.20;;;;;;;;;;4374804;32;20047;-53
2022/01/31 01:30:19;;;;;;;0.52;0.20;;;;;;;;;;4388482;32;20039;-51
2022/01/31 01:33:00;;;;;;;0.62;0.20;;;;;;;;;;4379696;32;20080;-54
2022/01/31 01:35:32;;;;;;;0.75;0.30;;;;;;;;;;4386983;32;20035;-50
2022/01/31 01:38:06;;;;;;;1.27;0.30;;;;;;;;;;4380482;32;20067;-52
2022/01/31 01:40:36;;;;;;;0.60;0.20;;;;;;;;;;4374427;32;20401;-54
2022/01/31 01:43:04;;;;;;;0.65;0.20;;;;;;;;;;4380695;32;20042;-51
2022/01/31 01:45:32;;;;;;;0.50;0.25;;;;;;;;;;4383045;32;20080;-53
2022/01/31 01:48:01;;;;;;;0.68;0.20;;;;;;;;;;4377815;32;20065;-54
2022/01/31 01:50:29;;;;;;;0.73;0.20;;;;;;;;;;4378059;32;20043;-54
2022/01/31 01:52:57;;;;;;;0.85;0.30;;;;;;;;;;4385177;32;20042;-51
2022/01/31 01:55:26;;;;;;;0.65;0.28;;;;;;;;;;4382960;32;20039;-51
2022/01/31 01:57:56;;;;;;;0.32;0.20;;;;;;;;;;4384621;32;20117;-51
2022/01/31 02:00:43;;;;;;;0.35;0.20;;;;;;;;;;4385320;32;20430;-52
2022/01/31 02:03:11;;;;;;;0.77;0.28;;;;;;;;;;4385302;32;20101;-52
2022/01/31 02:05:40;;;;;;;2.00;0.30;;;;;;;;;;4382458;32;20460;-52
2022/01/31 02:08:10;;;;;;;1.50;0.30;;;;;;;;;;4379587;32;20057;-51
2022/01/31 02:10:40;;;;;;;0.40;0.30;;;;;;;;;;4379109;32;20148;-51
2022/01/31 02:13:09;;;;;;;0.57;0.30;;;;;;;;;;4384243;32;20074;-53
2022/01/31 02:15:40;;;;;;;0.93;0.22;;;;;;;;;;4380872;32;20516;-51
2022/01/31 02:18:14;;;;;;;0.62;0.37;;;;;;;;;;4382919;32;20023;-51
2022/01/31 02:20:43;;;;;;;0.80;0.40;;;;;;;;;;4376811;32;20057;-50
2022/01/31 02:23:13;;;;;;;1.05;0.30;;;;;;;;;;4376112;32;20093;-51
2022/01/31 02:26:03;;;;;;;1.17;0.40;;;;;;;;;;4377673;32;20064;-53
2022/01/31 02:28:35;;;;;;;0.68;0.32;;;;;;;;;;4376135;32;20112;-52
2022/01/31 02:31:04;;;;;;;1.02;0.47;;;;;;;;;;4381363;32;20054;-51
2022/01/31 02:33:33;;;;;;;1.40;0.30;;;;;;;;;;4377830;32;20547;-53
2022/01/31 02:36:04;;;;;;;1.30;0.40;;;;;;;;;;4381876;32;20050;-51
2022/01/31 02:38:33;;;;;;;0.98;0.40;;;;;;;;;;4379372;32;20035;-54
2022/01/31 02:41:02;;;;;;;2.28;0.62;;;;;;;;;;4382749;32;20027;-54
2022/01/31 02:43:32;;;;;;;0.62;0.30;;;;;;;;;;4382115;32;20070;-51
2022/01/31 02:46:02;;;;;;;1.08;0.20;;;;;;;;;;4377191;32;20047;-55
2022/01/31 02:48:34;;;;;;;1.60;0.47;;;;;;;;;;4381152;32;20053;-54
2022/01/31 02:51:09;;;;;;;1.05;0.30;;;;;;;;;;4380353;32;20112;-54
2022/01/31 02:53:40;;;;;;;;;;;;;;;;;;4371895;32;20422;-54
2022/01/31 02:56:10;;;;;;;1.37;0.40;;;;;;;;;;4382327;32;19958;-51
2022/01/31 02:58:39;;;;;;;0.93;0.43;;;;;;;;;;4384352;32;20121;-53
2022/01/31 03:01:09;;;;;;;0.77;0.25;;;;;;;;;;4382630;32;20153;-51
2022/01/31 03:03:38;;;;;;;2.30;0.40;;;;;;;;;;4377542;32;20031;-53
2022/01/31 03:06:07;;;;;;;1.02;0.20;;;;;;;;;;4374022;32;20066;-54
2022/01/31 03:08:35;;;;;;;0.30;0.30;;;;;;;;;;4381177;32;20458;-51
2022/01/31 03:11:07;;;;;;;0.40;0.20;;;;;;;;;;4379606;32;20096;-52
2022/01/31 03:13:36;;;;;;;0.85;0.40;;;;;;;;;;4377394;32;20066;-53
2022/01/31 03:16:04;;;;;;;0.82;0.30;;;;;;;;;;4378868;32;20039;-51
2022/01/31 03:18:35;;;;;;;1.37;0.35;;;;;;;;;;4384169;32;20039;-54
2022/01/31 03:21:03;;;;;;;0.60;0.30;;;;;;;;;;4378453;32;20097;-55
2022/01/31 03:23:34;;;;;;;0.70;0.20;;;;;;;;;;4375436;32;20067;-55
2022/01/31 03:26:02;;;;;;;0.70;0.30;;;;;;;;;;4382364;32;20050;-55
2022/01/31 03:28:31;;;;;;;0.28;0.20;;;;;;;;;;4377910;32;20066;-54
2022/01/31 03:30:59;;;;;;;0.52;0.30;;;;;;;;;;4382441;32;20430;-55
2022/01/31 03:33:28;;;;;;;1.25;0.30;;;;;;;;;;4382645;32;20559;-53
2022/01/31 03:35:56;;;;;;;0.17;0.17;;;;;;;;;;4379032;32;20358;-55
2022/01/31 03:38:24;;;;;;;1.95;0.20;;;;;;;;;;4382383;32;20090;-53
2022/01/31 03:40:52;;;;;;;0.20;0.10;;;;;;;;;;4378974;32;20427;-55
2022/01/31 03:43:21;;;;;;;0.52;0.35;;;;;;;;;;4375226;32;20062;-53
2022/01/31 03:45:49;;;;;;;0.62;0.22;;;;;;;;;;4377684;32;20047;-54
2022/01/31 03:48:21;;;;;;;0.28;0.20;;;;;;;;;;4385344;32;20051;-54
2022/01/31 03:50:49;;;;;;;1.17;0.20;;;;;;;;;;4390828;32;20410;-52
2022/01/31 03:53:19;;;;;;;0.60;0.20;;;;;;;;;;4381531;32;20078;-52
2022/01/31 03:55:47;;;;;;;0.60;0.20;;;;;;;;;;4370732;32;20253;-51
2022/01/31 03:58:16;;;;;;;0.47;0.30;;;;;;;;;;4372808;32;20035;-51
2022/01/31 04:00:44;;;;;;;0.30;0.20;;;;;;;;;;4376297;32;20082;-52
2022/01/31 04:03:12;;;;;;;0.57;0.22;;;;;;;;;;4379083;32;20046;-54
2022/01/31 04:05:41;;;;;;;0.30;0.10;;;;;;;;;;4380469;32;20104;-55
2022/01/31 04:08:09;;;;;;;0.90;0.30;;;;;;;;;;4386561;32;20430;-52
2022/01/31 04:10:37;;;;;;;0.52;0.30;;;;;;;;;;4379913;32;20110;-54
2022/01/31 04:13:06;;;;;;;0.37;0.20;;;;;;;;;;4380756;32;20074;-51
2022/01/31 04:15:35;;;;;;;0.40;0.17;;;;;;;;;;4382681;32;20078;-52
2022/01/31 04:18:03;;;;;;;0.80;0.20;;;;;;;;;;4383996;32;20444;-52
2022/01/31 04:20:31;;;;;;;0.73;0.22;;;;;;;;;;4382947;32;20026;-54
2022/01/31 04:23:05;;;;;;;1.50;0.20;;;;;;;;;;4381786;32;20031;-52
2022/01/31 04:25:54;;;;;;;0.70;0.20;;;;;;;;;;4382950;32;20078;-52
2022/01/31 04:28:31;;;;;;;0.32;0.20;;;;;;;;;;4380084;32;20439;-52
2022/01/31 04:31:23;;;;;;;0.43;0.30;;;;;;;;;;4382320;32;20035;-53
2022/01/31 04:33:52;;;;;;;0.20;0.15;;;;;;;;;;4386179;32;20060;-53
2022/01/31 04:36:20;;;;;;;1.10;0.20;;;;;;;;;;4375749;32;20086;-53
2022/01/31 04:38:49;;;;;;;0.45;0.20;;;;;;;;;;4375213;32;20031;-55
2022/01/31 04:41:17;;;;;;;0.45;0.28;;;;;;;;;;4387884;32;20057;-54
2022/01/31 04:43:47;;;;;;;1.30;0.20;;;;;;;;;;4390552;32;20065;-53
2022/01/31 04:46:15;;;;;;;0.30;0.20;;;;;;;;;;4380125;32;20462;-55
2022/01/31 04:48:43;;;;;;;0.10;0.10;;;;;;;;;;4378631;32;20027;-54
2022/01/31 04:51:12;;;;;;;1.00;0.20;;;;;;;;;;4379255;32;20499;-54
2022/01/31 04:53:40;;;;;;;0.75;0.30;;;;;;;;;;4381399;32;20035;-52
2022/01/31 04:56:08;;;;;;;1.27;0.20;;;;;;;;;;4382547;32;20551;-53
2022/01/31 04:58:36;;;;;;;1.33;0.28;;;;;;;;;;4386183;32;20047;-52
2022/01/31 05:01:04;;;;;;;0.60;0.20;;;;;;;;;;4381544;32;20090;-53
2022/01/31 05:03:32;;;;;;;0.55;0.28;;;;;;;;;;4378870;32;20035;-52
2022/01/31 05:06:01;;;;;;;0.30;0.10;;;;;;;;;;4383748;32;20114;-53
2022/01/31 05:08:29;;;;;;;1.23;0.20;;;;;;;;;;4380327;32;20092;-51
2022/01/31 05:10:57;;;;;;;0.65;0.20;;;;;;;;;;4380077;32;20040;-52
2022/01/31 05:13:26;;;;;;;0.98;0.30;;;;;;;;;;4375202;32;20089;-51
2022/01/31 05:15:55;;;;;;;0.35;0.10;;;;;;;;;;4380778;32;20035;-52
2022/01/31 05:18:23;;;;;;;0.60;0.20;;;;;;;;;;4386007;32;20050;-53
2022/01/31 05:20:51;;;;;;;0.17;0.17;;;;;;;;;;4377115;32;20061;-53
2022/01/31 05:23:19;;;;;;;0.20;0.15;;;;;;;;;;4383137;32;20465;-55
2022/01/31 05:25:47;;;;;;;0.30;0.20;;;;;;;;;;4381992;32;20094;-53
2022/01/31 05:28:15;;;;;;;1.25;0.20;;;;;;;;;;4382337;32;20104;-53
2022/01/31 05:30:43;;;;;;;1.25;0.20;;;;;;;;;;4386997;32;20418;-52
2022/01/31 05:33:11;;;;;;;0.75;0.20;;;;;;;;;;4382916;32;20453;-52
2022/01/31 05:35:39;;;;;;;0.70;0.20;;;;;;;;;;4376900;32;20154;-51
2022/01/31 05:38:07;;;;;;;0.20;0.20;;;;;;;;;;4380601;32;20419;-55
2022/01/31 05:40:35;;;;;;;0.10;0.10;;;;;;;;;;4377931;32;20073;-56
2022/01/31 05:43:03;;;;;;;0.55;0.30;;;;;;;;;;4376844;32;20176;-53
2022/01/31 05:45:31;;;;;;;0.35;0.25;;;;;;;;;;4380902;32;20082;-53
2022/01/31 05:47:59;;;;;;;0.35;0.28;;;;;;;;;;4385104;32;20109;-55
2022/01/31 05:50:27;;;;;;;0.65;0.30;;;;;;;;;;4381724;32;20040;-54
2022/01/31 05:52:55;;;;;;;0.20;0.20;;;;;;;;;;4383769;32;20086;-51
2022/01/31 05:55:23;;;;;;;0.30;0.17;;;;;;;;;;4383025;32;20032;-55
2022/01/31 05:57:51;;;;;;;0.45;0.20;;;;;;;;;;4379132;32;20035;-52
2022/01/31 06:00:21;;;;;;;0.75;0.30;;;;;;;;;;4383339;32;20351;-52
2022/01/31 06:02:54;;;;;;;0.32;0.17;;;;;;;;;;4386135;32;20042;-54
2022/01/31 06:05:23;;;;;;;0.45;0.22;;;;;;;;;;4373636;32;20103;-54
2022/01/31 06:07:52;;;;;;;0.82;0.20;;;;;;;;;;4382238;32;20046;-52
2022/01/31 06:10:23;;;;;;;0.52;0.28;;;;;;;;;;4381455;32;20058;-55
2022/01/31 06:12:52;;;;;;;0.30;0.30;;;;;;;;;;4381869;32;20343;-52
2022/01/31 06:15:20;;;;;;;0.32;0.30;;;;;;;;;;4375984;32;20035;-52
2022/01/31 06:17:49;;;;;;;0.70;0.20;;;;;;;;;;4375938;32;20050;-51
2022/01/31 06:20:17;;;;;;;0.55;0.22;;;;;;;;;;4373959;32;20039;-53
2022/01/31 06:22:47;;;;;;;2.12;0.30;;;;;;;;;;4377798;32;20055;-53
2022/01/31 06:25:15;;;;;;;1.45;0.17;;;;;;;;;;4378630;32;20031;-54
2022/01/31 06:27:45;;;;;;;0.28;0.28;;;;;;;;;;4375959;32;20119;-53
2022/01/31 06:30:14;;;;;;;0.13;0.10;;;;;;;;;;4384404;32;20065;-52
2022/01/31 06:32:45;;;;;;;1.75;0.15;;;;;;;;;;4380882;32;20050;-54
2022/01/31 06:35:13;;;;;;;1.02;0.20;;;;;;;;;;4377630;32;20104;-54
2022/01/31 06:37:41;;;;;;;0.88;0.30;;;;;;;;;;4380258;32;20027;-54
2022/01/31 06:40:10;;;;;;;0.73;0.17;;;;;;;;;;4382707;32;20401;-52
2022/01/31 06:42:38;;;;;;;0.22;0.22;;;;;;;;;;4373172;32;20035;-52
2022/01/31 06:45:07;;;;;;;0.60;0.30;;;;;;;;;;4388511;32;20031;-55
2022/01/31 06:47:35;;;;;;;0.37;0.20;;;;;;;;;;4378480;32;20108;-56
2022/01/31 06:50:06;;;;;;;0.22;0.20;;;;;;;;;;4384040;32;20039;-52
2022/01/31 06:52:36;;;;;;;1.08;0.47;;;;;;;;;;4379538;32;20072;-56
2022/01/31 06:55:07;;;;;;;0.70;0.40;;;;;;;;;;4382078;32;20073;-54
2022/01/31 06:57:36;;;;;;;1.95;0.20;;;;;;;;;;4377104;32;20098;-54
2022/01/31 07:00:05;;;;;;;0.20;0.20;;;;;;;;;;4383304;32;20038;-53
2022/01/31 07:02:34;;;;;;;0.10;0.10;;;;;;;;;;4382848;32;20050;-55
2022/01/31 07:05:03;;;;;;;1.27;0.20;;;;;;;;;;4383036;32;20437;-53
2022/01/31 07:07:31;;;;;;;1.08;0.22;;;;;;;;;;4374726;32;20044;-52
2022/01/31 07:10:03;;;;;;;0.13;0.13;;;;;;;;;;4383003;32;20079;-52
2022/01/31 07:12:38;;;;;;;1.33;0.30;;;;;;;;;;4386377;32;20092;-53
2022/01/31 07:15:11;;;;;;;2.10;0.45;;;;;;;;;;4384936;32;20105;-51
2022/01/31 07:17:46;;;;;;;6.70;0.60;;;;;;;;;;4379818;32;20058;-51
2022/01/31 07:20:23;;;;;;;3.40;0.70;;;;;;;;;;4377169;32;20081;-52
2022/01/31 07:23:08;;;;;;;1.37;0.35;;;;;;;;;;4379896;32;20143;-52
2022/01/31 07:25:36;;;;;;;2.85;0.40;;;;;;;;;;4377029;32;20101;-51
2022/01/31 07:28:08;;;;;;;1.37;0.52;;;;;;;;;;4378686;32;20366;-51
2022/01/31 07:30:37;;;;;;;2.42;0.50;;;;;;;;;;4382449;32;20086;-51
2022/01/31 07:33:06;;;;;;;1.20;0.50;;;;;;;;;;4379081;32;20086;-51
2022/01/31 07:35:35;;;;;;;1.37;0.30;;;;;;;;;;4377313;32;20097;-53
2022/01/31 07:38:03;;;;;;;0.73;0.30;;;;;;;;;;4384316;32;20039;-53
2022/01/31 07:40:32;;;;;;;1.02;0.35;;;;;;;;;;4383783;32;20046;-51
2022/01/31 07:43:00;;;;;;;0.98;0.30;;;;;;;;;;4380175;32;20027;-54
2022/01/31 07:45:28;;;;;;;0.73;0.30;;;;;;;;;;4379384;32;20105;-55
2022/01/31 07:47:57;;;;;;;0.95;0.32;;;;;;;;;;4383599;32;20043;-52
2022/01/31 07:50:26;;;;;;;2.05;0.30;;;;;;;;;;4390454;32;20043;-54
2022/01/31 07:52:54;;;;;;;0.65;0.20;;;;;;;;;;4392373;32;20094;-52
2022/01/31 07:55:23;;;;;;;1.55;0.30;;;;;;;;;;4392112;32;20051;-50
2022/01/31 07:57:51;;;;;;;0.52;0.30;;;;;;;;;;4391742;32;20089;-52
2022/01/31 08:00:20;;;;;;;1.55;0.20;;;;;;;;;;4392281;32;20050;-52
2022/01/31 08:02:49;;;;;;;1.42;0.25;;;;;;;;;;4390687;32;20043;-51
2022/01/31 08:05:21;;;;;;;2.15;0.55;;;;;;;;;;4390247;32;20069;-50
2022/01/31 08:07:50;;;;;;;1.77;0.40;;;;;;;;;;4391863;32;20413;-51
2022/01/31 08:10:18;;;;;;;0.55;0.20;;;;;;;;;;4391722;32;20073;-54
2022/01/31 08:12:46;;;;;;;0.80;0.35;;;;;;;;;;4392474;32;20088;-55
2022/01/31 08:15:23;;;;;;;0.93;0.30;;;;;;;;;;4389781;32;20084;-51
2022/01/31 08:17:51;;;;;;;1.55;0.20;;;;;;;;;;4391247;32;20114;-53
2022/01/31 08:20:20;;;;;;;0.80;0.30;;;;;;;;;;4391684;32;20423;-52
2022/01/31 08:22:48;;;;;;;0.82;0.30;;;;;;;;;;4390446;32;20027;-51
2022/01/31 08:25:16;;;;;;;1.00;0.32;;;;;;;;;;4390426;32;20070;-52
2022/01/31 08:27:48;;;;;;;1.10;0.30;;;;;;;;;;4391576;32;20461;-53
2022/01/31 08:30:22;;;;;;;0.85;0.20;;;;;;;;;;4388903;32;20104;-52
2022/01/31 08:33:00;;;;;;;2.45;0.40;;;;;;;;;;4392231;32;20042;-52
2022/01/31 08:38:16;;;;;;;1.10;0.30;;;;;;;;;;4392224;32;20039;-52
2022/01/31 08:40:45;;;;;;;1.65;0.30;;;;;;;;;;4391373;32;20332;-51
2022/01/31 08:43:14;;;;;;;1.30;0.37;;;;;;;;;;4392258;32;20044;-52
2022/01/31 08:45:43;;;;;;;1.35;0.30;;;;;;;;;;4392147;32;20101;-54
2022/01/31 08:48:16;;;;;;;1.75;0.30;;;;;;;;;;4377641;32;20073;-52
2022/01/31 08:50:45;;;;;;;3.17;0.30;;;;;;;;;;4380364;32;20089;-51
2022/01/31 08:53:13;;;;;;;2.17;0.40;;;;;;;;;;4382093;32;20047;-52
2022/01/31 08:55:45;;;;;;;1.80;0.30;;;;;;;;;;4384497;32;20051;-51
2022/01/31 08:58:14;;;;;;;0.75;0.20;;;;;;;;;;4390173;32;20050;-53
2022/01/31 09:00:43;;;;;;;0.90;0.20;;;;;;;;;;4383760;32;20061;-51
2022/01/31 09:05:40;;;;;;;0.32;0.20;;;;;;;;;;4388993;32;20077;-51
2022/01/31 09:08:09;;;;;;;0.20;0.20;;;;;;;;;;4386820;32;20047;-53
2022/01/31 09:10:37;;;;;;;0.62;0.30;;;;;;;;;;4389192;32;20478;-54
2022/01/31 09:13:06;;;;;;;0.45;0.20;;;;;;;;;;4385539;32;20019;-54
2022/01/31 09:15:34;;;;;;;0.57;0.20;;;;;;;;;;4374135;32;20053;-55
2022/01/31 09:18:02;;;;;;;1.15;0.20;;;;;;;;;;4385912;32;20039;-54
2022/01/31 09:20:31;;;;;;;1.17;0.20;;;;;;;;;;4382731;32;20513;-51
2022/01/31 09:23:06;;;;;;;0.20;0.20;;;;;;;;;;4381232;32;20043;-51
2022/01/31 09:25:35;;;;;;;1.10;0.20;;;;;;;;;;4375013;32;20422;-55
2022/01/31 09:28:03;;;;;;;0.40;0.25;;;;;;;;;;4383594;32;20106;-53
2022/01/31 09:30:31;;;;;;;0.10;0.10;;;;;;;;;;4385105;32;20035;-51
2022/01/31 09:33:00;;;;;;;0.65;0.28;;;;;;;;;;4380538;32;20433;-50
2022/01/31 09:35:28;;;;;;;0.32;0.10;;;;;;;;;;4378480;32;20039;-52
2022/01/31 09:37:56;;;;;;;0.40;0.20;;;;;;;;;;4389410;32;20032;-51
2022/01/31 09:40:25;;;;;;;1.30;0.32;;;;;;;;;;4378980;32;20035;-52
2022/01/31 09:43:25;;;;;;;0.20;0.20;;;;;;;;;;4389147;32;20476;-52
2022/01/31 09:48:33;;;;;;;0.73;0.20;;;;;;;;;;4383633;32;20024;-53
2022/01/31 09:51:09;;;;;;;0.28;0.20;;;;;;;;;;4377445;32;20043;-51
2022/01/31 09:53:46;;;;;;;1.08;0.20;;;;;;;;;;4379141;32;20487;-52
2022/01/31 09:56:21;;;;;;;0.62;0.30;;;;;;;;;;4378045;32;20043;-55
2022/01/31 09:58:50;;;;;;;2.70;0.40;;;;;;;;;;4383708;32;20031;-52
2022/01/31 10:01:21;;;;;;;2.25;0.50;;;;;;;;;;4377697;32;20031;-53
2022/01/31 10:03:55;;;;;;;0.55;0.30;;;;;;;;;;4379853;32;20047;-52
2022/01/31 10:06:24;;;;;;;2.97;0.40;;;;;;;;;;4387415;32;20046;-54
2022/01/31 10:09:17;;;;;;;3.05;0.22;;;;;;;;;;4380543;32;20361;-54
2022/01/31 10:11:53;;;;;;;2.83;0.30;;;;;;;;;;4377784;32;20103;-52
2022/01/31 10:17:25;;;;;;;2.22;0.40;;;;;;;;;;4378999;32;20038;-51
2022/01/31 10:20:08;;;;;;;5.30;0.60;;;;;;;;;;4372187;32;20096;-52
2022/01/31 10:22:38;;;;;;;2.83;0.62;;;;;;;;;;4377273;32;20095;-51
2022/01/31 10:25:08;;;;;;;3.15;0.80;;;;;;;;;;4374979;32;20048;-53
2022/01/31 10:27:55;;;;;;;6.47;0.82;;;;;;;;;;4385156;32;20363;-51
2022/01/31 10:30:25;;;;;;;5.05;0.75;;;;;;;;;;4378474;32;20051;-53
2022/01/31 10:32:54;;;;;;;9.75;0.80;;;;;;;;;;4379489;32;20047;-51
2022/01/31 10:35:31;;;;;;;2.28;0.62;;;;;;;;;;4380187;32;20537;-54
2022/01/31 10:38:04;;;;;;;4.03;0.82;;;;;;;;;;4379532;32;20058;-53
2022/01/31 10:57:00;;;;;;;2.33;0.60;;;;;;;;;;4381390;32;20103;-50
2022/01/31 10:59:32;;;;;;;3.90;0.50;;;;;;;;;;4383061;32;20445;-50
2022/01/31 11:02:02;;;;;;;2.15;0.40;;;;;;;;;;4383486;32;20111;-50
2022/01/31 11:04:40;;;;;;;4.18;0.80;;;;;;;;;;4371151;32;20097;-51
2022/01/31 11:07:10;;;;;;;5.35;0.50;;;;;;;;;;4386135;32;20077;-50
2022/01/31 11:09:40;;;;;;;5.00;0.80;;;;;;;;;;4378196;32;20097;-51
2022/01/31 11:12:09;;;;;;;4.10;0.82;;;;;;;;;;4376803;32;20097;-54
2022/01/31 11:14:38;;;;;;;3.45;0.70;;;;;;;;;;4380457;32;20061;-49
2022/01/31 11:17:10;;;;;;;3.85;0.50;;;;;;;;;;4380075;32;20126;-50
2022/01/31 11:19:40;;;;;;;1.50;0.40;;;;;;;;;;4377100;32;20472;-50
2022/01/31 11:22:10;;;;;;;3.75;0.60;;;;;;;;;;4379525;32;20096;-54
2022/01/31 11:25:08;;;;;;;2.72;0.80;;;;;;;;;;4369843;32;20071;-50
2022/01/31 11:27:37;;;;;;;4.68;0.70;;;;;;;;;;4376885;32;20104;-50
2022/01/31 11:30:07;;;;;;;5.12;0.50;;;;;;;;;;4378922;32;20042;-49
2022/01/31 11:32:35;;;;;;;3.03;0.80;;;;;;;;;;4382984;32;20058;-51
2022/01/31 11:35:04;;;;;;;2.87;0.60;;;;;;;;;;4380880;32;20096;-51
2022/01/31 11:37:33;;;;;;;5.43;0.77;;;;;;;;;;4381920;32;20057;-50
2022/01/31 11:40:03;;;;;;;1.33;0.60;;;;;;;;;;4381590;32;20073;-51
2022/01/31 11:42:32;;;;;;;1.58;0.40;;;;;;;;;;4372328;32;20432;-54
2022/01/31 11:45:04;;;;;;;4.93;0.70;;;;;;;;;;4378037;32;20109;-50
2022/01/31 11:47:33;;;;;;;3.30;0.50;;;;;;;;;;4380332;32;20054;-50
2022/01/31 11:50:05;;;;;;;3.05;0.65;;;;;;;;;;4379716;32;20044;-51
2022/01/31 11:52:42;;;;;;;2.80;0.50;;;;;;;;;;4497431;27;20051;-89
2022/01/31 11:55:13;;;;;;;3.45;0.62;;;;;;;;;;4348598;33;20033;-88
2022/01/31 11:57:45;;;;;;;4.00;0.88;;;;;;;;;;4346469;33;20111;-88
2022/01/31 12:00:16;;;;;;;2.20;0.85;;;;;;;;;;4346921;33;20058;-89
2022/01/31 12:02:46;;;;;;;5.75;0.70;;;;;;;;;;4361189;32;20135;-88
2022/01/31 12:05:22;;;;;;;3.60;0.82;;;;;;;;;;4347162;33;20107;-89
2022/01/31 12:08:01;;;;;;;3.83;0.77;;;;;;;;;;4358865;33;20344;-89
2022/01/31 12:10:37;;;;;;;3.15;0.60;;;;;;;;;;4347167;33;20055;-89
2022/01/31 12:13:29;;;;;;;3.87;0.93;;;;;;;;;;4346457;33;20367;-89
2022/01/31 12:16:23;;;;;;;3.92;0.80;;;;;;;;;;4359460;33;20364;-89
2022/01/31 12:19:03;;;;;;;5.15;0.70;;;;;;;;;;4345682;33;20044;-89
2022/01/31 12:24:39;;;;;;;9.50;0.85;;;;;;;;;;4348867;33;20047;-89
2022/01/31 12:27:16;;;;;;;3.45;0.60;;;;;;;;;;4349656;32;20032;-89
2022/01/31 12:29:54;;;;;;;4.12;1.00;;;;;;;;;;4351321;32;20054;-89
2022/01/31 12:32:33;;;;;;;3.45;0.88;;;;;;;;;;4348453;33;20087;-89
2022/01/31 12:35:09;;;;;;;2.37;0.60;;;;;;;;;;4349134;32;20024;-89
2022/01/31 12:38:04;;;;;;;7.28;0.95;;;;;;;;;;4351129;32;20040;-88
2022/01/31 12:40:39;;;;;;;;;;;;;;;;;;4323860;33;20344;-89
2022/01/31 12:43:13;;;;;;;4.35;0.98;;;;;;;;;;4349113;33;19970;-88
2022/01/31 12:45:43;;;;;;;12.30;1.42;;;;;;;;;;4349208;32;20082;-89
2022/01/31 12:48:38;;;;;;;4.28;0.90;;;;;;;;;;4350832;33;20028;-89
2022/01/31 12:51:08;;;;;;;5.28;0.80;;;;;;;;;;4347947;33;20040;-88
2022/01/31 12:53:41;;;;;;;8.60;1.17;;;;;;;;;;4348790;32;20493;-89
2022/01/31 12:56:21;;;;;;;3.53;0.75;;;;;;;;;;4350672;33;20096;-89
2022/01/31 12:58:54;;;;;;;7.40;0.98;;;;;;;;;;4360231;33;20036;-89
2022/01/31 13:01:24;;;;;;;3.47;0.90;;;;;;;;;;4361239;32;20099;-89
2022/01/31 13:03:59;;;;;;;2.62;0.70;;;;;;;;;;4350662;32;20057;-89
2022/01/31 13:06:37;;;;;;;3.67;0.77;;;;;;;;;;4348575;33;20036;-89
2022/01/31 13:09:15;;;;;;;7.72;1.08;;;;;;;;;;4350788;32;20051;-89
2022/01/31 13:11:45;;;;;;;4.15;0.90;;;;;;;;;;4350153;32;20032;-89
2022/01/31 13:14:19;;;;;;;5.37;0.60;;;;;;;;;;4360981;32;20121;-89
2022/01/31 13:17:12;;;;;;;4.28;0.80;;;;;;;;;;4348026;32;20036;-89
2022/01/31 13:19:46;;;;;;;3.40;0.67;;;;;;;;;;4347568;33;20040;-89
2022/01/31 13:22:25;;;;;;;3.72;0.70;;;;;;;;;;4347362;32;20118;-89
2022/01/31 13:24:56;;;;;;;7.35;0.90;;;;;;;;;;4349263;33;20067;-89
2022/01/31 13:27:32;;;;;;;2.37;0.50;;;;;;;;;;4347917;33;20087;-90
2022/01/31 13:30:12;;;;;;;2.42;0.65;;;;;;;;;;4347736;33;20399;-89
2022/01/31 13:32:40;;;;;;;6.60;1.02;;;;;;;;;;4360028;32;20106;-88
2022/01/31 13:35:13;;;;;;;5.87;1.00;;;;;;;;;;4358924;32;20054;-89
2022/01/31 13:37:56;;;;;;;6.65;0.90;;;;;;;;;;4349438;32;20048;-89
2022/01/31 13:40:34;;;;;;;2.17;0.70;;;;;;;;;;4350593;33;20413;-89
2022/01/31 13:43:12;;;;;;;5.37;1.00;;;;;;;;;;4348737;32;20051;-89
2022/01/31 13:45:56;;;;;;;4.95;0.70;;;;;;;;;;4349400;33;20029;-89
2022/01/31 13:48:31;;;;;;;;;;;;;;;;;;4349010;33;20414;-89
2022/01/31 13:51:02;;;;;;;2.40;0.80;;;;;;;;;;4349943;32;19975;-89
2022/01/31 13:53:36;;;;;;;3.97;0.82;;;;;;;;;;4347476;33;20044;-89
2022/01/31 13:56:07;;;;;;;6.03;1.08;;;;;;;;;;4348618;32;20072;-89
2022/01/31 13:58:39;;;;;;;2.75;0.80;;;;;;;;;;4348076;32;20031;-89
2022/01/31 14:01:18;;;;;;;5.25;0.60;;;;;;;;;;4347287;33;20107;-89
2022/01/31 14:03:47;;;;;;;4.50;0.70;;;;;;;;;;4347260;33;20036;-89
2022/01/31 14:06:19;;;;;;;4.97;0.80;;;;;;;;;;4359348;32;20064;-89
2022/01/31 14:09:00;;;;;;;4.37;1.00;;;;;;;;;;4360924;32;20066;-89
2022/01/31 14:11:30;;;;;;;3.85;0.70;;;;;;;;;;4346740;33;20040;-90
2022/01/31 14:14:00;;;;;;;4.32;0.70;;;;;;;;;;4361317;32;20111;-89
2022/01/31 14:16:36;;;;;;;4.12;0.80;;;;;;;;;;4359288;32;20028;-89
2022/01/31 14:19:10;;;;;;;7.90;1.30;;;;;;;;;;4347632;33;20145;-90
2022/01/31 14:21:40;;;;;;;11.05;1.15;;;;;;;;;;4347331;32;20438;-90
2022/01/31 14:24:10;;;;;;;8.15;1.58;;;;;;;;;;4358796;33;20416;-90
2022/01/31 14:27:05;;;;;;;7.85;1.33;;;;;;;;;;4348468;33;20041;-90
2022/01/31 14:29:38;;;;;;;7.68;1.10;;;;;;;;;;4347057;33;20447;-90
2022/01/31 14:32:07;;;;;;;7.35;0.95;;;;;;;;;;4346589;33;20056;-90
2022/01/31 14:34:45;;;;;;;6.80;1.05;;;;;;;;;;4359636;32;20074;-91
2022/01/31 14:37:13;;;;;;;8.77;1.12;;;;;;;;;;4347499;33;20397;-90
2022/01/31 14:40:02;;;;;;;7.47;1.00;;;;;;;;;;4359305;32;20100;-91
2022/01/31 14:42:50;;;;;;;6.37;1.12;;;;;;;;;;4347365;33;20062;-91
2022/01/31 14:48:08;;;;;;;10.90;1.58;;;;;;;;;;4346695;33;20024;-91
2022/01/31 14:50:42;;;;;;;5.90;0.90;;;;;;;;;;4346287;33;20088;-90
2022/01/31 14:53:18;;;;;;;12.07;1.33;;;;;;;;;;4345720;33;20059;-91
2022/01/31 14:55:49;;;;;;;6.47;1.10;;;;;;;;;;4347548;32;20035;-91
2022/01/31 14:58:19;;;;;;;4.30;1.17;;;;;;;;;;4347802;32;20371;-91
2022/01/31 15:00:49;;;;;;;3.62;0.93;;;;;;;;;;4358311;32;20075;-90
2022/01/31 15:03:22;;;;;;;5.20;1.00;;;;;;;;;;4347206;32;20091;-91
2022/01/31 15:05:52;;;;;;;7.55;1.00;;;;;;;;;;4357636;32;20032;-90
2022/01/31 15:08:21;;;;;;;5.03;1.23;;;;;;;;;;4358367;32;20036;-90
2022/01/31 15:10:50;;;;;;;6.87;1.10;;;;;;;;;;4346818;33;20093;-90
2022/01/31 15:13:20;;;;;;;5.68;1.10;;;;;;;;;;4346527;33;20066;-90
2022/01/31 15:15:54;;;;;;;6.15;1.17;;;;;;;;;;4345360;33;20431;-90
2022/01/31 15:18:23;;;;;;;7.18;1.10;;;;;;;;;;4358187;32;20044;-90
2022/01/31 15:20:52;;;;;;;4.25;1.20;;;;;;;;;;4357197;32;20040;-90
2022/01/31 15:23:22;;;;;;;7.18;1.08;;;;;;;;;;4345188;33;20090;-91
2022/01/31 15:25:51;;;;;;;4.50;1.17;;;;;;;;;;4357398;32;20044;-89
2022/01/31 15:28:20;;;;;;;6.12;1.05;;;;;;;;;;4357631;32;20111;-91
2022/01/31 15:30:48;;;;;;;6.47;0.85;;;;;;;;;;4345680;33;20050;-89
2022/01/31 15:33:19;;;;;;;5.30;0.95;;;;;;;;;;4347948;32;20058;-89
2022/01/31 15:35:52;;;;;;;6.82;0.95;;;;;;;;;;4361857;32;20032;-89
2022/01/31 15:38:26;;;;;;;5.35;0.82;;;;;;;;;;4363596;32;20475;-90
2022/01/31 15:40:57;;;;;;;2.97;0.80;;;;;;;;;;4359909;32;20048;-90